createdAt,value
2023-10-29T00:03:17.483Z,99950.59
2023-10-29T00:08:24.185Z,99947.19
2023-10-29T00:13:30.846Z,99949.84
2023-10-29T00:18:41.339Z,99953.28
2023-10-29T00:23:47.532Z,99949.00
2023-10-29T00:28:53.777Z,99939.56
2023-10-29T00:34:01.780Z,99931.78
2023-10-29T00:39:09.930Z,99928.41
2023-10-29T00:44:16.202Z,99936.22
2023-10-29T00:49:24.385Z,99957.88
2023-10-29T00:54:30.985Z,99954.31
2023-10-29T00:59:38.603Z,99955.19
2023-10-29T01:04:46.954Z,99956.91
2023-10-29T01:09:53.592Z,99960.38
2023-10-29T01:15:00.059Z,99954.31
2023-10-29T01:20:14.214Z,99943.94
2023-10-29T01:25:21.253Z,99955.28
2023-10-29T01:30:27.634Z,99960.47
2023-10-29T01:35:35.310Z,99959.59
2023-10-29T01:40:41.972Z,99968.28
2023-10-29T01:45:48.367Z,99965.81
2023-10-29T01:50:57.533Z,99967.53
2023-10-29T01:56:08.801Z,99968.47
2023-10-29T02:01:15.449Z,99978.13
2023-10-29T02:06:23.630Z,99984.19
2023-10-29T02:11:30.217Z,99980.91
2023-10-29T02:16:37.010Z,99988.81
2023-10-29T02:21:44.866Z,99990.63
2023-10-29T02:26:52.664Z,99976.84
2023-10-29T02:31:59.486Z,99968.22
2023-10-29T02:37:06.152Z,99984.69
2023-10-29T02:42:18.575Z,99992.50
2023-10-29T02:47:25.319Z,99995.94
2023-10-29T02:52:32.373Z,99998.53
2023-10-29T02:57:41.917Z,99994.19
2023-10-29T03:02:49.079Z,100002.03
2023-10-29T03:07:55.586Z,100014.13
2023-10-29T03:13:03.427Z,100004.69
2023-10-29T03:18:09.847Z,99996.06
2023-10-29T03:23:16.251Z,99995.38
2023-10-29T03:28:25.501Z,99993.56
2023-10-29T03:33:31.615Z,99995.31
2023-10-29T03:38:38.498Z,99995.09
2023-10-29T03:43:46.485Z,99986.41
2023-10-29T03:48:53.058Z,99990.69
2023-10-29T03:53:59.628Z,99986.44
2023-10-29T03:59:07.755Z,99981.25
2023-10-29T04:04:14.026Z,99970.94
2023-10-29T04:09:20.530Z,99965.75
2023-10-29T04:14:28.526Z,99964.78
2023-10-29T04:19:35.411Z,99979.53
2023-10-29T04:24:42.428Z,99978.72
2023-10-29T04:29:51.051Z,99983.91
2023-10-29T04:35:01.660Z,99996.84
2023-10-29T04:40:12.639Z,99993.34
2023-10-29T04:45:20.854Z,99986.53
2023-10-29T04:50:32.143Z,99995.16
2023-10-29T04:55:38.613Z,99996.81
2023-10-29T05:00:46.951Z,99998.59
2023-10-29T05:05:54.711Z,100004.63
2023-10-29T05:11:01.426Z,100004.63
2023-10-29T05:16:10.196Z,100000.28
2023-10-29T05:21:20.869Z,99999.41
2023-10-29T05:26:27.732Z,100009.75
2023-10-29T05:31:36.897Z,100012.34
2023-10-29T05:36:44.557Z,100015.81
2023-10-29T05:41:51.541Z,100038.22
2023-10-29T05:46:59.738Z,100046.94
2023-10-29T05:52:07.701Z,100040.00
2023-10-29T05:57:17.680Z,100050.34
2023-10-29T06:02:25.826Z,100057.22
2023-10-29T06:07:35.623Z,100060.63
2023-10-29T06:12:42.359Z,100064.06
2023-10-29T06:17:50.535Z,100062.25
2023-10-29T06:22:57.343Z,100072.59
2023-10-29T06:28:04.231Z,100076.88
2023-10-29T06:33:13.713Z,100084.59
2023-10-29T06:38:20.305Z,100076.75
2023-10-29T06:43:27.102Z,100065.41
2023-10-29T06:48:35.233Z,100045.47
2023-10-29T06:53:41.863Z,100041.13
2023-10-29T06:58:48.360Z,100023.72
2023-10-29T07:03:56.887Z,100024.47
2023-10-29T07:09:05.471Z,100021.00
2023-10-29T07:14:12.211Z,100036.41
2023-10-29T07:19:20.165Z,100019.84
2023-10-29T07:24:26.814Z,100030.00
2023-10-29T07:29:33.492Z,100023.88
2023-10-29T07:34:41.631Z,100022.84
2023-10-29T07:39:48.476Z,100021.81
2023-10-29T07:44:56.207Z,100022.53
2023-10-29T07:50:07.882Z,100020.56
2023-10-29T07:55:14.512Z,100003.84
2023-10-29T08:00:21.589Z,99995.75
2023-10-29T08:05:29.567Z,100004.22
2023-10-29T08:10:36.558Z,100008.44
2023-10-29T08:15:43.888Z,100002.97
2023-10-29T08:20:52.378Z,100014.91
2023-10-29T08:25:59.012Z,100011.94
2023-10-29T08:31:06.254Z,100013.44
2023-10-29T08:36:18.285Z,59898.34
2023-10-29T08:41:24.910Z,59898.34
2023-10-29T08:46:31.570Z,59898.34
2023-10-29T08:51:39.826Z,59898.34
2023-10-29T08:56:48.826Z,59898.34
2023-10-29T09:01:57.306Z,59898.34
2023-10-29T09:07:06.355Z,59898.34
2023-10-29T09:12:13.192Z,59898.34
2023-10-29T09:17:19.922Z,59898.34
2023-10-29T09:22:28.364Z,59898.34
2023-10-29T09:27:35.175Z,59898.34
2023-10-29T09:32:41.918Z,59898.34
2023-10-29T09:37:50.252Z,59898.34
2023-10-29T09:42:58.674Z,59898.34
2023-10-29T09:48:08.320Z,59898.34
2023-10-29T09:53:18.648Z,59898.34
2023-10-29T09:58:26.333Z,59898.34
2023-10-29T10:03:33.264Z,59898.34
2023-10-29T10:08:41.784Z,59898.34
2023-10-29T10:13:48.641Z,100013.44
2023-10-29T10:18:57.571Z,99937.97
2023-10-29T10:24:13.413Z,99925.53
2023-10-29T10:29:22.908Z,99914.88
2023-10-29T10:34:29.808Z,99908.66
2023-10-29T10:39:38.401Z,99909.25
2023-10-29T10:44:47.167Z,99917.81
2023-10-29T10:49:57.040Z,99914.81
2023-10-29T10:55:06.166Z,99917.09
2023-10-29T11:00:14.777Z,99902.00
2023-10-29T11:05:21.883Z,99887.94
2023-10-29T11:10:30.558Z,99882.44
2023-10-29T11:15:49.671Z,99874.28
2023-10-29T11:20:58.354Z,99863.38
2023-10-29T11:26:26.754Z,99860.69
2023-10-29T11:31:33.485Z,99852.19
2023-10-29T11:36:43.353Z,99863.25
2023-10-29T11:41:53.973Z,99862.03
2023-10-29T11:47:10.172Z,99844.28
2023-10-29T11:52:16.760Z,99836.03
2023-10-29T11:57:25.680Z,99829.50
2023-10-29T12:02:32.647Z,99828.13
2023-10-29T12:07:39.392Z,99820.13
2023-10-29T12:12:55.591Z,99809.09
2023-10-29T12:18:03.218Z,99802.66
2023-10-29T12:23:09.800Z,99791.09
2023-10-29T12:28:18.399Z,99794.41
2023-10-29T12:33:27.720Z,99784.75
2023-10-29T12:38:34.595Z,99794.16
2023-10-29T12:43:44.743Z,99789.25
2023-10-29T12:49:02.862Z,99796.72
2023-10-29T12:54:14.574Z,99789.31
2023-10-29T12:59:22.992Z,99789.41
2023-10-29T13:04:30.778Z,99790.94
2023-10-29T13:09:39.059Z,99796.50
2023-10-29T13:14:48.035Z,99796.91
2023-10-29T13:19:54.889Z,99795.50
2023-10-29T13:25:02.578Z,99797.44
2023-10-29T13:30:13.249Z,99800.03
2023-10-29T13:35:20.302Z,99786.63
2023-10-29T13:40:27.566Z,99773.25
2023-10-29T13:45:35.731Z,99771.44
2023-10-29T13:50:42.331Z,99754.78
2023-10-29T13:55:49.339Z,99759.19
2023-10-29T14:00:58.189Z,99757.31
2023-10-29T14:06:05.737Z,99757.09
2023-10-29T14:11:12.745Z,99746.69
2023-10-29T14:16:22.059Z,99745.78
2023-10-29T14:21:29.873Z,99740.53
2023-10-29T14:26:38.949Z,99723.19
2023-10-29T14:31:48.378Z,99719.88
2023-10-29T14:36:56.741Z,99720.13
2023-10-29T14:42:04.647Z,99709.84
2023-10-29T14:47:13.838Z,99720.47
2023-10-29T14:52:21.427Z,99714.59
2023-10-29T14:57:30.138Z,99716.53
2023-10-29T15:02:39.694Z,99713.97
2023-10-29T15:07:46.500Z,99733.50
2023-10-29T15:12:53.774Z,99708.34
2023-10-29T15:18:03.127Z,99705.78
2023-10-29T15:23:10.367Z,99703.31
2023-10-29T15:28:18.439Z,99713.88
2023-10-29T15:33:27.423Z,99706.22
2023-10-29T15:38:36.164Z,99711.63
2023-10-29T15:43:44.737Z,99720.44
2023-10-29T15:48:54.723Z,99720.44
2023-10-29T15:54:02.609Z,99731.84
2023-10-29T15:59:12.162Z,99734.50
2023-10-29T16:04:24.269Z,99725.81
2023-10-29T16:09:33.887Z,99733.69
2023-10-29T16:14:44.762Z,99721.44
2023-10-29T16:19:56.133Z,99719.69
2023-10-29T16:25:06.653Z,99732.81
2023-10-29T16:30:19.969Z,99726.88
2023-10-29T16:35:30.220Z,99723.34
2023-10-29T16:40:38.994Z,99722.63
2023-10-29T16:45:48.139Z,99733.28
2023-10-29T16:51:03.757Z,99745.66
2023-10-29T16:56:14.098Z,99754.34
2023-10-29T17:01:24.801Z,99750.00
2023-10-29T17:06:35.843Z,99746.75
2023-10-29T17:11:49.182Z,99758.16
2023-10-29T17:16:59.822Z,99750.38
2023-10-29T17:22:17.615Z,99740.81
2023-10-29T17:27:29.630Z,99736.53
2023-10-29T17:32:39.694Z,99733.06
2023-10-29T17:37:50.062Z,99714.88
2023-10-29T17:43:04.150Z,99706.25
2023-10-29T17:48:15.948Z,99695.00
2023-10-29T17:53:26.897Z,99692.50
2023-10-29T17:58:37.061Z,99690.03
2023-10-29T18:03:49.173Z,99678.00
2023-10-29T18:09:01.966Z,99678.00
2023-10-29T18:14:12.252Z,99683.44
2023-10-29T18:19:22.756Z,99679.34
2023-10-29T18:24:35.945Z,99680.41
2023-10-29T18:29:47.014Z,99691.03
2023-10-29T18:34:57.132Z,99688.72
2023-10-29T18:40:09.471Z,99697.53
2023-10-29T18:45:21.599Z,99709.91
2023-10-29T18:50:31.677Z,99723.19
2023-10-29T18:55:44.686Z,99748.66
2023-10-29T19:01:10.066Z,99740.31
2023-10-29T19:06:22.389Z,99739.59
2023-10-29T19:11:36.493Z,99742.56
2023-10-29T19:16:46.029Z,99733.38
2023-10-29T19:21:58.606Z,99727.63
2023-10-29T19:27:13.084Z,99725.03
2023-10-29T19:32:24.257Z,99739.09
2023-10-29T19:37:36.342Z,99733.31
2023-10-29T19:42:48.224Z,99733.41
2023-10-29T19:48:00.474Z,99732.56
2023-10-29T19:53:16.113Z,99731.78
2023-10-29T19:58:32.385Z,99719.63
2023-10-29T20:03:43.155Z,99719.63
2023-10-29T20:09:03.801Z,99731.91
2023-10-29T20:14:16.528Z,99730.25
2023-10-29T20:19:29.705Z,99726.16
2023-10-29T20:24:39.270Z,99726.06
2023-10-29T20:29:54.615Z,99710.47
2023-10-29T20:35:08.384Z,99700.88
2023-10-29T20:40:19.372Z,99717.34
2023-10-29T20:45:30.214Z,99718.19
2023-10-29T20:50:38.999Z,99716.47
2023-10-29T20:55:47.855Z,99720.81
2023-10-29T21:00:56.689Z,99722.63
2023-10-29T21:06:03.767Z,99733.00
2023-10-29T21:11:14.943Z,99735.63
2023-10-29T21:16:25.257Z,99727.72
2023-10-29T21:21:32.542Z,99722.63
2023-10-29T21:26:40.057Z,99719.28
2023-10-29T21:31:49.244Z,99713.28
2023-10-29T21:36:55.732Z,99718.56
2023-10-29T21:42:02.901Z,99716.97
2023-10-29T21:47:11.208Z,99700.59
2023-10-29T21:52:18.554Z,99714.44
2023-10-29T21:57:25.452Z,99700.66
2023-10-29T22:02:33.536Z,99691.13
2023-10-29T22:07:40.597Z,99712.84
2023-10-29T22:12:50.770Z,99731.06
2023-10-29T22:17:58.945Z,99728.34
2023-10-29T22:23:05.880Z,99744.75
2023-10-29T22:28:12.780Z,99739.31
2023-10-29T22:33:21.033Z,99752.25
2023-10-29T22:38:28.194Z,99742.53
2023-10-29T22:43:36.383Z,99745.91
2023-10-29T22:48:44.646Z,99762.47
2023-10-29T22:53:53.262Z,99764.16
2023-10-29T22:59:00.092Z,99747.53
2023-10-29T23:04:09.093Z,99747.38
2023-10-29T23:09:16.249Z,99747.31
2023-10-29T23:14:22.941Z,99733.41
2023-10-29T23:19:31.170Z,99725.59
2023-10-29T23:24:38.056Z,99737.00
2023-10-29T23:29:44.969Z,99709.00
2023-10-29T23:34:53.470Z,99728.19
2023-10-29T23:40:00.202Z,99706.25
2023-10-29T23:45:08.003Z,99708.06
2023-10-29T23:50:15.810Z,99724.66
2023-10-29T23:55:22.277Z,99706.31
